Breckenridge, CO (80424)

3:26 AM MDT on April 18, 2015 (GMT -0600)
Downtown | | Change Station
CLOSE
Current Station
Personal Weather Station
Location: Breckenridge, CO
Elevation: 9590 ft
Nearby Weather Stations

Elev 9590 ft 39.48 °N, 106.05 °W | Updated 3 seconds ago

Partly Cloudy
Partly Cloudy
22.5 °F
Feels Like 22 °F
N
0.0
Wind Variable Wind from NE
Gusts 2.0 mph

Today
High -- | Low -- °F
--% Chance of Precip.
Yesterday
High -- | Low -- °F
Precip. -- in
6:22 AM 7:44 PM
Waning Crescent, 0% visible
Pressure 29.98 in
Visibility 10.0 miles
Clouds Mostly Cloudy 2900 ft
Windchill 22 °F
Dew Point 17 °F
Humidity 78%
Rainfall 0.00 in
Snow Depth Not available.
UV 0 out of 12
Pollen 1.10 out of 12
Air Quality Not available.
Flu Activity Local Activity
SPECI KLXV 180922Z AUTO 00000KT 10SM BKN029 M11/M12 A2998 RMK AO2 T11111122

More Conditions Fewer Conditions

Pressure 29.98 in
Visibility 10.0 miles
Clouds Mostly Cloudy 2900 ft
Windchill 22 °F
Dew Point 17 °F
Humidity 78%
Rainfall 0.00 in
Snow Depth Not available.
UV 0 out of 12
Pollen 1.10 out of 12
Air Quality Not available.
Flu Activity Local Activity
SPECI KLXV 180922Z AUTO 00000KT 10SM BKN029 M11/M12 A2998 RMK AO2 T11111122

More Conditions Fewer Conditions

Nowcast | as of 2:29 am MDT on April 18, 2015

Areas of snow will continue over the Front Range through the early morning hours. The main areas of snow will be over the higher elevations and east slopes of the Front Range...with a batch of showers moving across most of Park County. Snowfall rates in these areas will be one half to one inch per hour...with lighter showers elsewhere.

×

10-Day Weather Forecast

Almanac

Astronomy

Apr. 18, 2015 Rise Set
Actual Time
Civil Twilight
Nautical Twilight
Astronomical Twilight
Moon
Length of Visible Light
Length of Day
Tomorrow will be .
, % of the Moon is Illuminated

Today's Extremes

State Highs State Lows

Community

WunderPhotos

Upload Photos

1,814,350 photos uploaded!

WunderBlogs® & News

Nearby

Air Quality

  Air Quality AQ Index Pollutant
Not available.

Snow Depth

Station Depth Elevation

Earthquake Activity

City Distance Mag. Time & Date
Minimum magnitude displayed is 2.5.

Coastal Water Temperatures

Place Temperature

Stations

Nearby Weather Stations

Station Location Temp. Windchill Dew Point Humidity Wind Precip. Elev Updated Type